FW3296 Weather Reports


Display with metric or nautical units.
time (UTC)temp
F
wind
direction
speed
MPH
gust
MPH
rain 1hr
in
rain 24hr
in
rain mn
in
humidity
%
barometer
mb
20190825042024 59 17 2.0 8.0 0.00 0.00 0.00 99 1017.3
20190825041030 59 354 0.0 5.0 0.00 0.00 0.00 99 1017.4
20190825040027 59 2 0.0 2.0 0.00 0.00 0.00 99 1017.3
20190825035032 59 0 0.0 5.0 0.00 0.00 0.00 99 1017.3
20190825034028 59 16 1.0 2.0 0.00 0.00 0.00 99 1017.3
20190825033032 59 24 2.0 8.0 0.00 0.00 0.00 99 1017.3
20190825032025 59 31 4.0 8.0 0.00 0.00 0.00 99 1017.0
20190825031024 58 25 3.0 8.0 0.00 0.00 0.00 99 1017.1
20190825030023 58 33 2.0 5.0 0.00 0.00 0.00 99 1017.3
20190825025029 58 21 1.0 5.0 0.00 0.00 0.00 99 1017.3
20190825024025 59 22 1.0 5.0 0.00 0.00 0.00 98 1017.2
20190825023031 59 17 1.0 5.0 0.00 0.00 0.00 98 1017.3
20190825022026 59 22 3.0 8.0 0.00 0.00 0.00 98 1017.1
20190825021030 59 26 3.0 5.0 0.00 0.00 0.00 98 1017.2
20190825020024 59 27 2.0 5.0 0.00 0.00 0.00 97 1017.2
20190825015026 59 18 0.0 2.0 0.00 0.00 0.00 97 1017.3
20190825014022 59 101 0.0 2.0 0.00 0.00 0.00 97 1017.3
20190825013030 59 31 1.0 5.0 0.00 0.00 0.00 97 1017.2
20190825012025 59 37 1.0 5.0 0.00 0.00 0.00 97 1017.0
20190825011031 60 28 2.0 5.0 0.00 0.00 0.00 96 1017.1
20190825010024 60 34 2.0 8.0 0.00 0.00 0.00 96 1017.0
20190825005031 60 25 0.0 2.0 0.00 0.00 0.00 96 1017.0
20190825004023 60 33 0.0 2.0 0.00 0.00 0.00 95 1017.0
20190825003026 60 354 0.0 2.0 0.00 0.00 0.00 95 1017.1
20190825002023 60 0.0 0.0 0.00 0.00 0.00 95 1017.2
20190825001031 60 0.0 0.0 0.00 0.00 0.00 95 1017.0
20190825000024 61 0.0 0.0 0.00 0.00 0.00 94 1017.0
20190824235031 61 0.0 0.0 0.00 0.00 0.00 94 1017.0
20190824234025 61 0.0 0.0 0.00 0.00 0.00 93 1017.0
20190824233030 62 238 1.0 2.0 0.00 0.00 0.00 92 1016.9
20190824232023 62 265 0.0 2.0 0.00 0.00 0.00 90 1016.9
20190824231028 62 0.0 0.0 0.00 0.00 0.00 90 1016.8
20190824230025 62 0.0 0.0 0.00 0.00 0.00 89 1016.7
20190824225030 62 0.0 0.0 0.00 0.00 0.00 89 1016.7
20190824224024 62 146 0.0 2.0 0.00 0.00 0.00 89 1016.7
20190824223030 62 173 0.0 5.0 0.00 0.00 0.00 89 1016.7
20190824222021 62 182 1.0 5.0 0.00 0.00 0.00 88 1016.6
20190824221029 62 178 2.0 5.0 0.00 0.00 0.00 89 1016.6
20190824220024 62 0.0 0.0 0.00 0.00 0.00 89 1016.6
20190824215027 62 218 0.0 2.0 0.00 0.00 0.00 89 1016.7
20190824214022 62 172 0.0 2.0 0.00 0.00 0.00 88 1016.6
20190824213031 62 221 0.0 2.0 0.00 0.00 0.00 88 1016.6
20190824212023 63 0.0 0.0 0.00 0.00 0.00 88 1016.6
20190824211030 63 0.0 0.0 0.00 0.00 0.00 87 1016.6
20190824210023 64 0.0 0.0 0.00 0.00 0.00 86 1016.6
20190824205032 64 233 1.0 5.0 0.00 0.00 0.00 85 1016.6
20190824204024 64 245 1.0 5.0 0.00 0.00 0.00 83 1016.6
20190824203024 65 268 1.0 2.0 0.00 0.00 0.00 83 1016.6
20190824202026 65 244 1.0 2.0 0.00 0.00 0.00 82 1016.5
20190824201033 65 233 0.0 2.0 0.00 0.00 0.00 81 1016.4
20190824200026 65 214 1.0 5.0 0.00 0.00 0.00 80 1016.2
20190824195033 65 213 0.0 2.0 0.00 0.00 0.00 81 1016.3
20190824194024 66 239 0.0 5.0 0.00 0.00 0.00 82 1016.2
20190824193031 66 228 1.0 5.0 0.00 0.00 0.00 81 1016.2
20190824192024 67 236 2.0 5.0 0.00 0.00 0.00 80 1016.2
20190824191024 68 221 2.0 5.0 0.00 0.00 0.00 77 1016.1
20190824190022 68 222 2.0 8.0 0.00 0.00 0.00 76 1015.8
20190824185032 68 188 2.0 8.0 0.00 0.00 0.00 75 1015.8
20190824184025 69 185 3.0 8.0 0.00 0.00 0.00 74 1015.8
20190824183030 69 188 3.0 8.0 0.00 0.00 0.00 73 1015.8
20190824182027 70 179 5.0 13.0 0.00 0.00 0.00 72 1015.7
20190824181032 70 206 3.0 8.0 0.00 0.00 0.00 71 1015.7
20190824180027 71 212 3.0 10.0 0.00 0.00 0.00 69 1015.8
20190824175025 72 213 4.0 10.0 0.00 0.00 0.00 67 1015.6
20190824174024 73 220 4.0 10.0 0.00 0.00 0.00 67 1015.5
20190824173030 74 213 4.0 10.0 0.00 0.00 0.00 65 1015.6
20190824172025 75 181 6.0 15.0 0.00 0.00 0.00 62 1015.6
20190824171034 76 160 6.0 13.0 0.00 0.00 0.00 60 1015.7
20190824170025 77 173 8.0 17.0 0.00 0.00 0.00 56 1015.6
20190824165031 77 188 7.0 15.0 0.00 0.00 0.00 53 1015.9
20190824164022 77 171 8.0 15.0 0.00 0.00 0.00 51 1015.9
20190824163024 78 175 9.0 17.0 0.00 0.00 0.00 51 1015.9
20190824162025 78 173 6.0 15.0 0.00 0.00 0.00 52 1015.9
20190824161029 78 189 7.0 13.0 0.00 0.00 0.00 51 1016.1
20190824160023 78 168 5.0 13.0 0.00 0.00 0.00 50 1016.1
20190824155032 79 177 8.0 17.0 0.00 0.00 0.00 50 1016.1
20190824154023 80 192 8.0 15.0 0.00 0.00 0.00 49 1016.1
20190824153032 80 221 7.0 15.0 0.00 0.00 0.00 49 1016.1
20190824152027 80 183 6.0 15.0 0.00 0.00 0.00 48 1016.1
20190824151023 80 136 7.0 17.0 0.00 0.00 0.00 49 1016.1
20190824150024 80 137 10.0 17.0 0.00 0.00 0.00 50 1016.4
20190824145035 80 150 9.0 20.0 0.00 0.00 0.00 49 1016.5
20190824144023 80 154 9.0 17.0 0.00 0.00 0.00 48 1016.4
20190824143034 80 144 10.0 20.0 0.00 0.00 0.00 47 1016.4
20190824142026 80 167 11.0 23.0 0.00 0.00 0.00 46 1016.6
20190824141032 80 172 11.0 23.0 0.00 0.00 0.00 45 1016.6
20190824140028 80 151 12.0 25.0 0.00 0.00 0.00 45 1016.5
20190824135031 80 128 9.0 20.0 0.00 0.00 0.00 47 1016.5
20190824134026 79 136 8.0 17.0 0.00 0.00 0.00 49 1016.7
20190824133032 79 161 9.0 20.0 0.00 0.00 0.00 49 1016.7
20190824132028 79 129 10.0 15.0 0.00 0.00 0.00 50 1016.7
20190824131035 79 125 10.0 17.0 0.00 0.00 0.00 50 1016.7
20190824130023 79 145 9.0 20.0 0.00 0.00 0.00 49 1016.8
20190824125035 79 175 10.0 23.0 0.00 0.00 0.00 51 1016.8
20190824124023 78 155 8.0 15.0 0.00 0.00 0.00 53 1017.0
20190824123027 78 157 10.0 17.0 0.00 0.00 0.00 52 1017.0
20190824122025 78 174 8.0 17.0 0.00 0.00 0.00 53 1017.0
20190824121034 77 146 8.0 15.0 0.00 0.00 0.00 54 1017.3
20190824120024 77 131 9.0 20.0 0.00 0.00 0.00 55 1017.3
20190824115031 77 129 8.0 15.0 0.00 0.00 0.00 56 1017.3
20190824114023 77 145 7.0 13.0 0.00 0.00 0.00 56 1017.4
20190824113032 76 134 8.0 15.0 0.00 0.00 0.00 56 1017.7
20190824112026 76 137 10.0 17.0 0.00 0.00 0.00 55 1017.9
20190824111026 76 143 8.0 17.0 0.00 0.00 0.00 55 1018.0
20190824110023 76 137 9.0 20.0 0.00 0.00 0.00 56 1017.9
20190824105035 76 147 9.0 15.0 0.00 0.00 0.00 56 1018.0
20190824104024 76 128 10.0 20.0 0.00 0.00 0.00 56 1018.0
20190824103031 76 135 9.0 17.0 0.00 0.00 0.00 56 1018.2
20190824102022 75 142 6.0 13.0 0.00 0.00 0.00 58 1018.0
20190824101031 75 164 7.0 13.0 0.00 0.00 0.00 57 1018.1
20190824100024 75 165 6.0 13.0 0.00 0.00 0.00 59 1018.3
20190824095024 74 149 8.0 17.0 0.00 0.00 0.00 60 1018.3
20190824094026 74 125 5.0 13.0 0.00 0.00 0.00 61 1018.3
20190824093031 73 126 8.0 15.0 0.00 0.00 0.00 61 1018.3
20190824092021 72 129 6.0 13.0 0.00 0.00 0.00 62 1018.3
20190824091031 72 128 8.0 17.0 0.00 0.00 0.00 62 1018.3
20190824090027 72 125 7.0 15.0 0.00 0.00 0.00 62 1018.3
20190824085030 72 132 7.0 15.0 0.00 0.00 0.00 61 1018.3
20190824084024 72 115 6.0 10.0 0.00 0.00 0.00 60 1018.3
20190824083025 71 132 4.0 8.0 0.00 0.00 0.00 60 1018.2
20190824082023 71 108 4.0 10.0 0.00 0.00 0.00 60 1018.2
20190824081030 70 108 2.0 8.0 0.00 0.00 0.00 60 1018.2
20190824080025 70 118 4.0 8.0 0.00 0.00 0.00 61 1018.4
20190824075033 69 119 4.0 10.0 0.00 0.00 0.00 61 1018.5
20190824074024 69 113 5.0 10.0 0.00 0.00 0.00 62 1018.5
20190824073035 68 115 2.0 8.0 0.00 0.00 0.00 63 1018.5
20190824072024 68 113 5.0 13.0 0.00 0.00 0.00 62 1018.6
20190824071025 66 114 6.0 13.0 0.00 0.00 0.00 62 1018.6
20190824070022 63 113 6.0 13.0 0.00 0.00 0.00 64 1018.5
20190824065030 61 116 4.0 10.0 0.00 0.00 0.00 67 1018.4
20190824064024 59 127 1.0 5.0 0.00 0.00 0.00 74 1018.4
20190824063029 59 86 0.0 2.0 0.00 0.00 0.00 77 1018.5
20190824062023 59 0.0 0.0 0.00 0.00 0.00 78 1018.6
20190824061032 58 0.0 0.0 0.00 0.00 0.00 79 1018.7
20190824060025 57 70 0.0 2.0 0.00 0.00 0.00 77 1018.7
20190824055026 57 98 0.0 2.0 0.00 0.00 0.00 81 1018.8
20190824054023 57 0.0 0.0 0.00 0.00 0.00 81 1018.8
20190824053030 57 0.0 0.0 0.00 0.00 0.00 80 1018.8
20190824052024 57 0.0 0.0 0.00 0.00 0.00 81 1018.9
20190824051032 58 0.0 0.0 0.00 0.00 0.00 81 1019.1
20190824050024 59 0.0 0.0 0.00 0.00 0.00 79 1019.1
20190824045031 60 31 0.0 2.0 0.00 0.00 0.00 77 1019.1
20190824044023 61 0.0 0.0 0.00 0.00 0.00 74 1019.1
20190824043025 61 121 1.0 5.0 0.00 0.00 0.00 75 1019.2